CheckWX is a tool to help pilots better visualize weather data.  It is not intended as a substitute for an official pre-flight weather briefing.

08:16:40 UTC

KMLS METAR
Frank Wiley Field Airport
Miles City, Montana, USA
Current

24 mins ago

KMLS 190753Z AUTO 34003KT 10SM CLR M21/M24 A3045 RMK AO2 SLP379 T12111239
Observed
Jan-19 @ 07:53 UTC
Wind
  • 340° at 3 KTS
Visibility
10 SM
Flight Rules
VFR
Cloud Levels
  • Clear skies
Temperature
-21°C / -6°F
Dewpoint
-24°C / -11°F
Humidity
77%
Altimeter
30.45" Hg
Pressure
1031.12 hPa
Previous

1 hour ago

KMLS 190653Z AUTO 00000KT 10SM CLR M20/M23 A3046 RMK AO2 SLP381 T12001228 411441239
Observed
Jan-19 @ 06:53 UTC
Visibility
10 SM
Flight Rules
VFR
Cloud Levels
  • Clear skies
Temperature
-20°C / -4°F
Dewpoint
-23°C / -9°F
Humidity
77%
Altimeter
30.46" Hg
Pressure
1031.52 hPa
Previous

2 hours ago

KMLS 190553Z AUTO 20003KT 10SM CLR M19/M22 A3045 RMK AO2 SLP379 T11891222 11161 21200 51003
Observed
Jan-19 @ 05:53 UTC
Wind
  • 200° at 3 KTS
Visibility
10 SM
Flight Rules
VFR
Cloud Levels
  • Clear skies
Temperature
-19°C / -2°F
Dewpoint
-22°C / -8°F
Humidity
77%
Altimeter
30.45" Hg
Pressure
1031.12 hPa